POV weather

Portage County Airport
Ravenna, Ohio, United States

Public forecast

Using degrees Fahrenheit for public forecast. Weather courtesy of forecast.io.

METAR (pilot weather report)

Retrieved 2019/03/23 02:15 UTC (33 seconds ago):

KPOV 230215Z AUTO 32009G15KT 10SM OVC022 M02/M06 A3003 RMK AO2 T10201057 PWINO

TAF (pilot weather forecast)

Forecast is more than 12 hours old.

Closest forecast is Akron Canton Regional Airport, 19.7 nm (36.4 km) SSW. Retrieved 2019/03/22 00:22 UTC (1 day ago):

TAF KCAK 222320Z 2300/2324 32012KT P6SM VCSH OVC035 TEMPO 2300/2302 2SM -SHSN BKN020 FM230300 32010KT P6SM BKN035 FM230600 30009KT P6SM SKC